Time;durP1;ratioP1;P1;durP2;ratioP2;P2;SDS_P1;SDS_P2;PMS_P1;PMS_P2;Temp;Humidity;BMP_temperature;BMP_pressure;BME280_temperature;BME280_humidity;BME280_pressure;Samples;Min_cycle;Max_cycle;Signal;HPM_P1;HPM_P2
2021/11/17 02:28:16;;;;;;;36.05;11.65;;;5.30;99.90;;;;;;4946383;29;20063;-86
2021/11/17 02:30:57;;;;;;;32.00;11.38;;;5.30;99.90;;;;;;4946179;29;20215;-85
2021/11/17 02:33:54;;;;;;;39.47;14.65;;;5.30;99.90;;;;;;4933412;29;20110;-85
2021/11/17 02:36:32;;;;;;;42.80;14.35;;;5.30;99.90;;;;;;4919479;29;20045;-85
2021/11/17 02:39:07;;;;;;;43.95;14.13;;;5.30;99.90;;;;;;4918308;29;20044;-85
2021/11/17 02:41:55;;;;;;;46.47;16.73;;;5.30;99.90;;;;;;4933318;29;20129;-85
2021/11/17 02:44:27;;;;;;;39.83;16.65;;;5.30;99.90;;;;;;4933463;29;20042;-85
2021/11/17 02:47:31;;;;;;;40.33;14.02;;;5.30;99.90;;;;;;4946149;28;20046;-85
2021/11/17 02:50:13;;;;;;;46.70;17.02;;;5.30;99.90;;;;;;4920942;28;20039;-85
2021/11/17 02:53:04;;;;;;;48.22;17.00;;;5.40;99.90;;;;;;4953572;28;20054;-84
2021/11/17 02:56:07;;;;;;;43.55;15.50;;;5.30;99.90;;;;;;4936726;28;20483;-85
2021/11/17 02:58:50;;;;;;;42.97;14.65;;;5.30;99.90;;;;;;4970002;28;20088;-85
2021/11/17 03:01:41;;;;;;;38.28;14.00;;;5.40;99.90;;;;;;4961182;28;20113;-85
2021/11/17 03:04:31;;;;;;;42.90;17.20;;;5.40;99.90;;;;;;5008089;28;20030;-84
2021/11/17 03:07:12;;;;;;;46.65;17.75;;;5.40;99.90;;;;;;5008071;28;20403;-84
2021/11/17 03:09:54;;;;;;;38.70;14.45;;;5.40;99.90;;;;;;4992033;28;20193;-84
2021/11/17 03:12:42;;;;;;;47.67;16.98;;;5.40;99.90;;;;;;5007993;28;20033;-85
2021/11/17 03:15:15;;;;;;;48.50;18.55;;;5.40;99.90;;;;;;4991857;28;20274;-86
2021/11/17 03:18:02;;;;;;;46.92;16.70;;;5.40;99.90;;;;;;4991909;28;20226;-85
2021/11/17 03:20:49;;;;;;;42.22;16.27;;;5.40;99.90;;;;;;4991620;28;20562;-85
2021/11/17 03:23:36;;;;;;;40.10;14.15;;;5.40;99.90;;;;;;4994800;28;20045;-85
2021/11/17 03:26:23;;;;;;;41.08;15.63;;;5.40;99.90;;;;;;5046339;28;20059;-84
2021/11/17 03:29:57;;;;;;;42.38;16.73;;;5.40;99.90;;;;;;5045999;28;20029;-85
2021/11/17 03:32:42;;;;;;;39.30;15.23;;;5.40;99.90;;;;;;4990217;28;20042;-85
2021/11/17 03:35:10;;;;;;;40.45;14.95;;;5.40;99.90;;;;;;4959590;28;20034;-85
2021/11/17 03:37:53;;;;;;;40.28;15.05;;;5.40;99.90;;;;;;4974625;28;20117;-86
2021/11/17 03:40:51;;;;;;;42.20;16.27;;;5.40;99.90;;;;;;4974622;28;20068;-85
2021/11/17 03:43:48;;;;;;;55.25;20.17;;;5.40;99.90;;;;;;4958597;28;20046;-85
2021/11/17 03:46:43;;;;;;;47.20;18.52;;;5.40;99.90;;;;;;4966010;28;20043;-86
2021/11/17 03:49:31;;;;;;;42.78;17.65;;;5.40;99.90;;;;;;4960825;28;20050;-85
2021/11/17 03:52:20;;;;;;;41.92;15.95;;;5.40;99.90;;;;;;4941023;28;20053;-85
2021/11/17 03:55:34;;;;;;;40.85;15.98;;;5.40;99.90;;;;;;4941244;28;20519;-85
2021/11/17 03:58:07;;;;;;;38.88;15.25;;;5.40;99.90;;;;;;4942697;28;20094;-85
2021/11/17 04:00:46;;;;;;;42.70;16.63;;;5.40;99.90;;;;;;4954955;28;20141;-85
2021/11/17 04:03:35;;;;;;;48.47;16.20;;;5.40;99.90;;;;;;4967657;28;20038;-85
2021/11/17 04:06:32;;;;;;;44.97;16.90;;;5.40;99.90;;;;;;4994275;28;20041;-85
2021/11/17 04:09:24;;;;;;;44.25;16.90;;;5.40;99.90;;;;;;4994738;28;20041;-85
2021/11/17 04:12:30;;;;;;;40.25;16.52;;;5.40;99.90;;;;;;4994975;28;20053;-85
2021/11/17 04:15:12;;;;;;;38.00;14.43;;;5.40;99.90;;;;;;4980744;28;20121;-86
2021/11/17 04:17:54;;;;;;;43.78;15.55;;;5.40;99.90;;;;;;4979258;28;20124;-85
2021/11/17 04:20:35;;;;;;;41.50;15.32;;;5.40;99.90;;;;;;4994443;28;20196;-85
2021/11/17 04:23:19;;;;;;;41.40;15.65;;;5.40;99.90;;;;;;4994141;28;20041;-85
2021/11/17 04:25:54;;;;;;;36.00;14.55;;;5.40;99.90;;;;;;4994643;28;20045;-85
2021/11/17 04:28:38;;;;;;;45.20;17.05;;;5.40;99.90;;;;;;4991829;28;20038;-84
2021/11/17 04:31:30;;;;;;;45.15;15.45;;;5.40;99.90;;;;;;4992026;28;20128;-84
2021/11/17 04:34:28;;;;;;;40.78;16.15;;;5.40;99.90;;;;;;4991473;28;20038;-85
2021/11/17 04:37:03;;;;;;;42.47;15.27;;;5.40;99.90;;;;;;4960788;28;20489;-85
2021/11/17 04:39:57;;;;;;;40.20;15.45;;;5.50;99.90;;;;;;4990783;28;20030;-85
2021/11/17 04:42:32;;;;;;;35.13;13.50;;;5.40;99.90;;;;;;4961156;28;20038;-85
2021/11/17 04:45:07;;;;;;;45.30;16.63;;;5.50;99.90;;;;;;5007097;28;20031;-85
2021/11/17 04:47:49;;;;;;;41.03;14.35;;;5.50;99.90;;;;;;5025445;28;20030;-85
2021/11/17 04:50:34;;;;;;;34.03;12.57;;;5.50;99.90;;;;;;4977631;28;20034;-85
2021/11/17 04:53:07;;;;;;;35.97;14.43;;;5.50;99.90;;;;;;5026612;28;20030;-85
2021/11/17 04:55:45;;;;;;;37.92;14.75;;;5.50;99.90;;;;;;5010248;28;20029;-85
2021/11/17 04:58:29;;;;;;;45.10;17.77;;;5.50;99.90;;;;;;4993839;28;20045;-85
2021/11/17 05:01:16;;;;;;;41.40;15.70;;;5.50;99.90;;;;;;5009974;28;20048;-85
2021/11/17 05:03:58;;;;;;;47.65;15.40;;;5.50;99.90;;;;;;5010114;28;20037;-86
2021/11/17 05:06:32;;;;;;;41.42;14.93;;;5.50;99.90;;;;;;4993734;28;20037;-84
2021/11/17 05:09:04;;;;;;;40.85;15.20;;;5.50;99.90;;;;;;4993497;28;20034;-86
2021/11/17 05:11:38;;;;;;;47.92;18.33;;;5.50;99.90;;;;;;5010010;28;20034;-85
2021/11/17 05:14:07;;;;;;;41.75;15.13;;;5.50;99.90;;;;;;5009593;28;20117;-85
2021/11/17 05:17:11;;;;;;;41.13;14.77;;;5.50;99.90;;;;;;5009931;28;20033;-85
2021/11/17 05:19:58;;;;;;;42.97;15.98;;;5.50;99.90;;;;;;4950115;29;20039;-85
2021/11/17 05:22:44;;;;;;;45.65;17.33;;;5.50;99.90;;;;;;5006616;28;20056;-85
2021/11/17 05:25:19;;;;;;;49.53;17.65;;;5.60;99.90;;;;;;5026002;28;20026;-86
2021/11/17 05:27:51;;;;;;;49.67;17.95;;;5.50;99.90;;;;;;5009516;28;20030;-85
2021/11/17 05:30:43;;;;;;;46.47;17.17;;;5.60;99.90;;;;;;5006245;28;20177;-85
2021/11/17 05:33:42;;;;;;;45.70;15.38;;;5.60;99.90;;;;;;4989535;28;20038;-85
2021/11/17 05:36:32;;;;;;;42.97;14.73;;;5.50;99.90;;;;;;5005924;28;20039;-84
2021/11/17 05:39:15;;;;;;;45.60;16.27;;;5.50;99.90;;;;;;5005298;28;20039;-85
2021/11/17 05:42:06;;;;;;;44.60;15.95;;;5.50;99.90;;;;;;5006199;28;20054;-85
2021/11/17 05:44:58;;;;;;;46.03;15.80;;;5.40;99.90;;;;;;4989761;28;20034;-85
2021/11/17 05:47:51;;;;;;;46.80;16.33;;;5.40;99.90;;;;;;4992080;28;20044;-85
2021/11/17 05:50:26;;;;;;;39.88;14.48;;;5.40;99.90;;;;;;4992711;28;20101;-84
2021/11/17 05:53:25;;;;;;;46.67;15.95;;;5.40;99.90;;;;;;5008674;28;20057;-84
2021/11/17 05:55:53;;;;;;;39.83;14.82;;;5.40;99.90;;;;;;5008779;28;20041;-85
2021/11/17 05:58:34;;;;;;;41.25;17.23;;;5.40;99.90;;;;;;5008388;28;20033;-85
2021/11/17 06:01:38;;;;;;;39.97;15.05;;;5.40;99.90;;;;;;4991462;28;20038;-84
2021/11/17 06:04:11;;;;;;;40.17;13.85;;;5.40;99.90;;;;;;5008406;28;20065;-85
2021/11/17 06:06:42;;;;;;;35.08;13.82;;;5.40;99.90;;;;;;4984004;28;20120;-85
2021/11/17 06:09:13;;;;;;;42.30;17.13;;;5.30;99.90;;;;;;5025543;28;20090;-86
2021/11/17 06:12:01;;;;;;;39.50;16.80;;;5.30;99.90;;;;;;4992375;28;20045;-87
2021/11/17 06:14:49;;;;;;;33.78;13.50;;;5.30;99.90;;;;;;5008219;28;20030;-84
2021/11/17 06:17:26;;;;;;;38.92;15.40;;;5.30;99.90;;;;;;5008263;28;20038;-85
2021/11/17 06:19:54;;;;;;;43.15;16.70;;;5.40;99.90;;;;;;5003326;23;20098;-84
2021/11/17 06:22:24;;;;;;;37.92;15.07;;;5.40;99.90;;;;;;5064794;28;20049;-84
2021/11/17 06:24:51;;;;;;;39.33;14.15;;;5.50;99.90;;;;;;5048140;28;20119;-86
2021/11/17 06:27:22;;;;;;;37.20;14.05;;;5.50;99.90;;;;;;5048093;28;20159;-84
2021/11/17 06:29:49;;;;;;;44.22;17.15;;;5.50;99.90;;;;;;5031324;28;20458;-84
2021/11/17 06:32:16;;;;;;;43.50;14.60;;;5.50;99.90;;;;;;5048022;28;20055;-84
2021/11/17 06:34:47;;;;;;;36.92;14.30;;;5.60;99.90;;;;;;5048054;28;20381;-85
2021/11/17 06:37:15;;;;;;;40.42;15.15;;;5.50;99.90;;;;;;5048046;28;20037;-84
2021/11/17 06:39:47;;;;;;;39.50;14.45;;;5.50;99.90;;;;;;5047832;28;20049;-84
2021/11/17 06:42:18;;;;;;;39.22;14.18;;;5.60;99.90;;;;;;5047929;28;20033;-85
2021/11/17 06:44:44;;;;;;;37.30;14.13;;;5.60;99.90;;;;;;5047967;28;20092;-85
2021/11/17 06:47:10;;;;;;;46.00;14.60;;;5.60;99.90;;;;;;5047982;28;20053;-86
2021/11/17 06:49:36;;;;;;;36.28;14.02;;;5.60;99.90;;;;;;5047997;28;20044;-86
2021/11/17 06:52:03;;;;;;;41.38;14.23;;;5.60;99.90;;;;;;5064685;28;20092;-84
2021/11/17 06:54:29;;;;;;;35.70;13.30;;;5.70;99.90;;;;;;5047533;28;20112;-84
2021/11/17 06:56:55;;;;;;;40.97;15.07;;;5.70;99.90;;;;;;5047424;28;20075;-85
2021/11/17 06:59:20;;;;;;;43.45;15.30;;;5.70;99.90;;;;;;5048162;28;20040;-85
2021/11/17 07:01:46;;;;;;;43.55;14.85;;;5.80;99.90;;;;;;5051676;28;20074;-84
2021/11/17 07:04:11;;;;;;;45.22;15.57;;;5.70;99.90;;;;;;5051292;28;20036;-84
2021/11/17 07:06:38;;;;;;;40.92;14.70;;;5.80;99.90;;;;;;5067961;28;20033;-88
2021/11/17 07:09:07;;;;;;;46.45;15.30;;;5.80;99.90;;;;;;5051253;28;20029;-86
2021/11/17 07:11:37;;;;;;;48.13;17.40;;;5.80;99.90;;;;;;5067659;28;20108;-88
2021/11/17 07:14:05;;;;;;;52.75;15.82;;;5.80;99.90;;;;;;5051278;28;20041;-85
2021/11/17 07:16:32;;;;;;;49.00;18.67;;;5.80;99.90;;;;;;5068015;28;20044;-87
2021/11/17 07:19:24;;;;;;;45.88;15.90;;;5.80;99.90;;;;;;5051022;28;20025;-86
2021/11/17 07:21:56;;;;;;;41.60;14.90;;;5.80;99.90;;;;;;5013505;28;20045;-86
2021/11/17 07:24:23;;;;;;;48.42;16.05;;;5.80;99.90;;;;;;5030066;28;20038;-86
2021/11/17 07:26:49;;;;;;;46.08;15.90;;;5.80;99.90;;;;;;5029841;28;20033;-85
2021/11/17 07:29:15;;;;;;;42.20;15.65;;;5.80;99.90;;;;;;5026397;28;20077;-85
2021/11/17 07:31:41;;;;;;;51.08;17.00;;;5.90;99.90;;;;;;5010364;28;20026;-85
2021/11/17 07:34:07;;;;;;;45.92;16.75;;;5.90;99.90;;;;;;5010191;28;20052;-85
2021/11/17 07:36:33;;;;;;;43.00;15.73;;;5.90;99.90;;;;;;5010268;28;20040;-85
2021/11/17 07:38:58;;;;;;;56.22;18.80;;;5.90;99.90;;;;;;5026435;28;20046;-84
2021/11/17 07:41:24;;;;;;;45.42;16.70;;;5.90;99.90;;;;;;5026919;28;20034;-85
2021/11/17 07:43:50;;;;;;;42.03;16.35;;;5.90;99.90;;;;;;5010273;28;20057;-85
2021/11/17 07:46:15;;;;;;;47.55;17.25;;;5.90;99.90;;;;;;5018141;28;20061;-84
2021/11/17 07:48:41;;;;;;;50.85;16.85;;;5.90;99.90;;;;;;5029745;28;20035;-85
2021/11/17 07:51:07;;;;;;;42.33;15.20;;;5.90;99.90;;;;;;5029623;28;20095;-85
2021/11/17 07:53:33;;;;;;;51.42;16.40;;;5.90;99.90;;;;;;5029922;28;20046;-85
2021/11/17 07:56:02;;;;;;;52.28;17.45;;;5.90;99.90;;;;;;5029552;28;20052;-85
2021/11/17 07:58:31;;;;;;;44.80;16.17;;;5.90;99.90;;;;;;5040637;28;20564;-84
2021/11/17 08:00:58;;;;;;;52.30;18.60;;;6.00;99.90;;;;;;5049679;28;20065;-84
2021/11/17 08:03:34;;;;;;;48.00;16.98;;;6.00;99.90;;;;;;5049908;28;20286;-85
2021/11/17 08:06:00;;;;;;;55.55;18.42;;;6.00;99.90;;;;;;5033104;28;20033;-85
2021/11/17 08:08:27;;;;;;;50.20;18.08;;;6.10;99.90;;;;;;5032784;28;20059;-85
2021/11/17 08:10:54;;;;;;;52.22;18.27;;;6.00;99.90;;;;;;5033135;28;20036;-85
2021/11/17 08:13:20;;;;;;;46.08;17.30;;;6.10;99.90;;;;;;5033043;28;20033;-85
2021/11/17 08:15:46;;;;;;;48.70;18.10;;;6.10;99.90;;;;;;5049871;28;20036;-85
2021/11/17 08:18:12;;;;;;;57.17;19.05;;;6.10;99.90;;;;;;5049469;28;20435;-85
2021/11/17 08:20:37;;;;;;;51.88;18.30;;;6.10;99.90;;;;;;5049158;28;20045;-84
2021/11/17 08:23:04;;;;;;;47.55;16.15;;;6.20;99.90;;;;;;5066014;28;20033;-84
2021/11/17 08:25:36;;;;;;;49.78;16.55;;;6.20;99.90;;;;;;5032663;28;20025;-84
2021/11/17 08:28:03;;;;;;;45.13;16.75;;;6.20;99.90;;;;;;5032427;28;20029;-84
2021/11/17 08:30:31;;;;;;;49.47;16.95;;;6.30;99.90;;;;;;5049172;28;20450;-84
2021/11/17 08:32:59;;;;;;;45.45;16.15;;;6.40;99.90;;;;;;5049408;28;20033;-84
2021/11/17 08:35:27;;;;;;;44.80;16.92;;;6.40;99.90;;;;;;5052038;28;20137;-85
2021/11/17 08:37:54;;;;;;;50.58;18.08;;;6.50;99.90;;;;;;5048936;28;20036;-85
2021/11/17 08:40:48;;;;;;;50.78;18.55;;;6.50;99.90;;;;;;5032371;28;20041;-85
2021/11/17 08:43:14;;;;;;;57.05;19.13;;;6.60;99.90;;;;;;5061800;28;20048;-85
2021/11/17 08:45:41;;;;;;;61.50;22.70;;;6.60;99.90;;;;;;5049033;28;20032;-86
2021/11/17 08:48:09;;;;;;;57.80;21.42;;;6.60;99.90;;;;;;5032375;28;20097;-86
2021/11/17 08:50:35;;;;;;;54.95;19.40;;;6.70;99.90;;;;;;5049783;28;20095;-84
2021/11/17 08:53:03;;;;;;;59.28;21.25;;;6.70;99.90;;;;;;5049083;28;20446;-84
2021/11/17 08:55:30;;;;;;;57.20;20.10;;;6.70;99.90;;;;;;5065160;28;20017;-85
2021/11/17 08:57:57;;;;;;;59.78;20.95;;;6.70;99.90;;;;;;5032280;28;20043;-84
2021/11/17 09:00:24;;;;;;;64.63;23.42;;;6.70;99.90;;;;;;5066508;28;20040;-84
2021/11/17 09:02:53;;;;;;;53.60;19.33;;;6.70;99.90;;;;;;5032453;28;20029;-85
2021/11/17 09:05:23;;;;;;;61.83;21.90;;;6.80;99.90;;;;;;5032193;28;20042;-85
2021/11/17 09:07:49;;;;;;;59.28;21.08;;;6.80;99.90;;;;;;5048082;28;20115;-84
2021/11/17 09:10:18;;;;;;;59.55;21.08;;;6.90;99.90;;;;;;5048600;28;20094;-84
2021/11/17 09:12:46;;;;;;;60.08;20.77;;;6.90;99.90;;;;;;5065062;28;20088;-84
2021/11/17 09:15:13;;;;;;;53.95;21.10;;;6.90;99.90;;;;;;5048200;28;20032;-84
2021/11/17 09:17:40;;;;;;;56.08;21.38;;;7.00;99.90;;;;;;5048090;28;20171;-84
2021/11/17 09:20:07;;;;;;;57.15;20.92;;;7.10;99.90;;;;;;5047795;28;20056;-84
2021/11/17 09:22:34;;;;;;;67.15;23.73;;;7.10;99.90;;;;;;5063830;28;20036;-83
2021/11/17 09:25:00;;;;;;;67.43;22.65;;;7.20;99.90;;;;;;5031646;28;20036;-84
2021/11/17 09:27:27;;;;;;;63.20;22.17;;;7.10;99.90;;;;;;5047952;28;20243;-85
2021/11/17 09:29:53;;;;;;;57.00;18.73;;;7.20;99.90;;;;;;5038435;28;20032;-85
2021/11/17 09:32:19;;;;;;;64.90;22.42;;;7.20;99.90;;;;;;5031345;28;20033;-84
2021/11/17 09:34:44;;;;;;;62.15;22.23;;;7.20;99.90;;;;;;5048148;28;20393;-85
2021/11/17 09:37:11;;;;;;;70.90;22.60;;;7.30;99.90;;;;;;5064559;28;20033;-84
2021/11/17 09:39:38;;;;;;;60.13;20.98;;;7.30;99.90;;;;;;5047707;28;20053;-84
2021/11/17 09:42:05;;;;;;;65.28;20.98;;;7.30;99.90;;;;;;5065621;28;20028;-85
2021/11/17 09:44:39;;;;;;;66.32;22.73;;;7.30;99.90;;;;;;5031390;28;20039;-85
2021/11/17 09:47:10;;;;;;;74.80;25.92;;;7.30;99.90;;;;;;5016315;28;20029;-84
2021/11/17 09:49:57;;;;;;;79.90;27.00;;;7.30;99.90;;;;;;5011377;28;20025;-85
2021/11/17 09:52:28;;;;;;;84.95;26.70;;;7.30;99.90;;;;;;5027961;28;20132;-84
2021/11/17 09:55:07;;;;;;;67.72;25.10;;;7.30;99.90;;;;;;5027915;28;20114;-85
2021/11/17 09:57:36;;;;;;;88.72;28.30;;;7.40;99.90;;;;;;5027396;28;20044;-85
2021/11/17 10:00:28;;;;;;;76.90;26.27;;;7.40;99.90;;;;;;5027706;28;20053;-87
2021/11/17 10:03:09;;;;;;;81.32;27.45;;;7.40;99.90;;;;;;5027952;28;20049;-85
2021/11/17 10:11:35;;;;;;;70.88;23.90;;;7.60;99.90;;;;;;5027352;28;20037;-85
2021/11/17 10:14:13;;;;;;;64.38;21.15;;;7.60;99.90;;;;;;5027476;28;20026;-85
2021/11/17 10:16:40;;;;;;;56.25;19.52;;;7.70;99.90;;;;;;5011045;28;20461;-85
2021/11/17 10:19:29;;;;;;;65.30;22.92;;;7.70;99.90;;;;;;5027322;28;20025;-84
2021/11/17 10:22:08;;;;;;;58.00;19.10;;;7.70;99.90;;;;;;5046204;28;20049;-85
2021/11/17 10:25:04;;;;;;;66.15;22.60;;;7.70;99.90;;;;;;5064226;28;20029;-85
2021/11/17 10:27:31;;;;;;;57.22;20.67;;;7.70;99.90;;;;;;5030682;28;20033;-84
2021/11/17 10:30:07;;;;;;;57.83;19.15;;;7.70;99.90;;;;;;5050550;28;20043;-85
2021/11/17 10:32:57;;;;;;;48.58;17.77;;;7.80;99.90;;;;;;5050563;28;20036;-86
2021/11/17 10:35:26;;;;;;;;;;;7.80;99.90;;;;;;5050723;28;20032;-85
2021/11/17 10:38:06;;;;;;;63.88;22.05;;;7.70;99.90;;;;;;5050529;28;19954;-85
2021/11/17 10:40:45;;;;;;;71.35;25.77;;;7.80;99.90;;;;;;5050469;28;20121;-86
2021/11/17 10:43:32;;;;;;;75.00;25.50;;;7.80;99.90;;;;;;5050402;28;20035;-85
2021/11/17 10:46:13;;;;;;;88.45;28.30;;;7.80;99.90;;;;;;5044900;28;20088;-84
2021/11/17 10:48:48;;;;;;;82.38;26.80;;;7.80;99.90;;;;;;5063753;28;20032;-84
2021/11/17 10:51:19;;;;;;;83.00;29.23;;;7.80;99.90;;;;;;5046998;28;20036;-84
2021/11/17 10:53:50;;;;;;;86.80;29.45;;;7.90;99.90;;;;;;5047242;28;20105;-85
2021/11/17 10:56:19;;;;;;;83.82;27.80;;;7.90;99.90;;;;;;5063717;28;20029;-85
2021/11/17 10:58:50;;;;;;;88.80;27.73;;;7.90;99.90;;;;;;5046605;28;20052;-85
2021/11/17 11:01:17;;;;;;;;;;;8.00;99.90;;;;;;5047565;28;20095;-85
2021/11/17 11:03:50;;;;;;;97.25;29.45;;;8.00;99.90;;;;;;5063528;28;20003;-84
2021/11/17 11:06:38;;;;;;;104.90;33.72;;;8.00;99.90;;;;;;5063657;28;20044;-85
2021/11/17 11:09:21;;;;;;;97.15;30.20;;;8.00;99.90;;;;;;5046740;28;20029;-84
2021/11/17 11:11:49;;;;;;;101.55;31.58;;;8.10;99.90;;;;;;5046728;28;20124;-85
2021/11/17 11:14:38;;;;;;;100.22;30.00;;;8.00;99.90;;;;;;5030266;28;20044;-85
2021/11/17 11:17:19;;;;;;;90.15;28.25;;;8.10;99.90;;;;;;5063334;28;20056;-85
2021/11/17 11:19:45;;;;;;;97.60;31.20;;;8.20;99.90;;;;;;5046579;28;20041;-85
2021/11/17 11:22:19;;;;;;;98.15;33.92;;;8.20;99.90;;;;;;5047057;28;20040;-84
2021/11/17 11:24:49;;;;;;;109.55;33.88;;;8.20;99.90;;;;;;5063528;28;20025;-85
2021/11/17 11:27:28;;;;;;;103.55;32.10;;;8.30;99.90;;;;;;5046685;28;20041;-84
2021/11/17 11:30:03;;;;;;;113.43;36.42;;;8.30;99.90;;;;;;5049896;28;20111;-84
2021/11/17 11:32:29;;;;;;;101.68;32.38;;;8.30;99.90;;;;;;5035060;28;20029;-85
2021/11/17 11:35:01;;;;;;;98.25;31.23;;;8.40;99.90;;;;;;5031130;28;20469;-85
2021/11/17 11:37:27;;;;;;;81.95;27.30;;;8.60;99.90;;;;;;5050008;28;20048;-86
2021/11/17 11:40:17;;;;;;;98.70;32.70;;;8.60;99.90;;;;;;5050032;28;20412;-86
2021/11/17 11:43:00;;;;;;;95.15;30.45;;;8.70;99.90;;;;;;5031326;28;20045;-86
2021/11/17 11:45:26;;;;;;;104.07;32.30;;;8.80;99.90;;;;;;5066551;28;20036;-86
2021/11/17 11:48:04;;;;;;;97.40;31.15;;;8.90;99.90;;;;;;5069900;28;20077;-85
2021/11/17 11:50:30;;;;;;;89.22;32.30;;;9.00;99.90;;;;;;5053923;28;20075;-86
2021/11/17 11:53:01;;;;;;;88.40;31.40;;;9.10;99.90;;;;;;5053582;28;20036;-85
2021/11/17 11:55:47;;;;;;;97.70;33.85;;;9.10;99.90;;;;;;5053396;28;20538;-86
2021/11/17 11:58:20;;;;;;;91.55;30.38;;;9.10;99.90;;;;;;5069711;28;20083;-85
2021/11/17 12:00:54;;;;;;;78.18;28.70;;;9.10;99.90;;;;;;5038059;28;20067;-86
2021/11/17 12:03:25;;;;;;;89.43;31.23;;;9.20;99.90;;;;;;5049828;28;20033;-88
2021/11/17 12:06:01;;;;;;;91.18;30.90;;;9.20;99.90;;;;;;5068927;28;20036;-86
2021/11/17 12:08:31;;;;;;;86.40;29.75;;;9.30;99.90;;;;;;5052592;28;20040;-86
2021/11/17 12:11:02;;;;;;;;;;;9.30;99.90;;;;;;5069252;28;20028;-90
2021/11/17 12:13:57;;;;;;;74.35;27.83;;;9.30;99.90;;;;;;5067587;28;19939;-92
2021/11/17 12:16:30;;;;;;;75.25;28.38;;;9.30;99.90;;;;;;5086040;28;20610;-87
2021/11/17 12:19:25;;;;;;;80.85;29.65;;;9.40;99.90;;;;;;5052465;28;20025;-88
2021/11/17 12:21:55;;;;;;;80.78;29.40;;;9.50;99.90;;;;;;5048195;28;20063;-87
2021/11/17 12:24:31;;;;;;;92.25;31.23;;;9.60;99.90;;;;;;5048033;28;20116;-88
2021/11/17 12:26:59;;;;;;;82.00;30.83;;;9.70;99.90;;;;;;5048548;28;20060;-89
2021/11/17 12:29:28;;;;;;;93.65;35.05;;;9.70;99.90;;;;;;5044448;28;20445;-87
2021/11/17 12:31:57;;;;;;;95.53;33.75;;;9.60;99.90;;;;;;5011881;28;20057;-87
2021/11/17 12:34:28;;;;;;;90.85;32.60;;;9.80;99.90;;;;;;5013585;28;20100;-88
2021/11/17 12:37:08;;;;;;;86.25;30.33;;;9.70;99.90;;;;;;5013530;28;20037;-86
2021/11/17 12:39:56;;;;;;;105.47;34.20;;;9.70;99.90;;;;;;5011623;28;20053;-87
2021/11/17 12:42:41;;;;;;;90.00;32.85;;;9.70;99.90;;;;;;5012003;28;20033;-87
2021/11/17 12:45:28;;;;;;;93.00;32.58;;;9.90;99.90;;;;;;5011736;28;20037;-88
2021/11/17 12:48:11;;;;;;;82.20;30.75;;;10.00;99.90;;;;;;5011606;28;20029;-87
2021/11/17 12:50:52;;;;;;;94.30;33.35;;;9.90;99.90;;;;;;5011407;28;20167;-87
2021/11/17 12:53:23;;;;;;;84.97;31.65;;;9.90;99.90;;;;;;5027968;28;20042;-88
2021/11/17 12:56:25;;;;;;;85.63;31.80;;;9.90;99.90;;;;;;5011734;28;20034;-88
2021/11/17 12:58:57;;;;;;;78.53;29.80;;;10.00;99.90;;;;;;5035738;28;20120;-87
2021/11/17 13:01:31;;;;;;;79.63;29.67;;;10.00;99.90;;;;;;5028713;28;20058;-87
2021/11/17 13:04:17;;;;;;;84.22;31.33;;;10.10;99.90;;;;;;5028876;28;20033;-86
2021/11/17 13:06:45;;;;;;;84.43;30.85;;;10.10;99.90;;;;;;5012459;28;20105;-86
2021/11/17 13:09:14;;;;;;;75.40;28.75;;;10.10;99.90;;;;;;5028808;28;20052;-87
2021/11/17 13:11:54;;;;;;;74.72;28.63;;;10.10;99.90;;;;;;5012224;28;20051;-87
2021/11/17 13:14:34;;;;;;;80.68;29.83;;;10.10;99.90;;;;;;5045403;28;20037;-86
2021/11/17 13:17:35;;;;;;;75.40;30.88;;;10.00;99.90;;;;;;5012229;28;20040;-87
2021/11/17 13:20:35;;;;;;;70.22;26.02;;;9.90;99.90;;;;;;5028215;28;20088;-86
2021/11/17 13:23:09;;;;;;;81.28;30.52;;;9.80;99.90;;;;;;5045131;28;20037;-88
2021/11/17 13:26:09;;;;;;;77.03;30.65;;;9.80;99.90;;;;;;5012281;28;20060;-89
2021/11/17 13:28:48;;;;;;;72.18;27.13;;;9.80;99.90;;;;;;5028359;28;20100;-86
2021/11/17 13:31:28;;;;;;;72.00;27.70;;;9.70;99.90;;;;;;5046196;28;20036;-86
2021/11/17 13:34:09;;;;;;;69.85;27.48;;;9.60;99.90;;;;;;5045065;28;20096;-87
2021/11/17 13:36:43;;;;;;;67.15;26.10;;;9.60;99.90;;;;;;5061672;28;20071;-87
2021/11/17 13:39:10;;;;;;;60.28;25.40;;;9.70;99.90;;;;;;5044699;28;20036;-87
2021/11/17 13:41:40;;;;;;;60.38;24.23;;;9.70;99.90;;;;;;5028349;28;20105;-88
2021/11/17 13:44:06;;;;;;;66.25;25.23;;;9.60;99.90;;;;;;5044903;28;20053;-87
2021/11/17 13:46:32;;;;;;;62.55;23.38;;;9.60;99.90;;;;;;5051788;28;20064;-87
2021/11/17 13:48:58;;;;;;;46.88;21.10;;;9.60;99.90;;;;;;5028067;28;20040;-88
2021/11/17 13:51:26;;;;;;;52.03;21.52;;;9.60;99.90;;;;;;5028250;28;20113;-88
2021/11/17 13:53:53;;;;;;;58.22;22.38;;;9.60;99.90;;;;;;5028636;28;20053;-88
2021/11/17 13:56:32;;;;;;;49.03;19.65;;;9.80;99.90;;;;;;5028108;28;20029;-86
2021/11/17 13:58:58;;;;;;;47.65;20.02;;;10.00;99.90;;;;;;5028081;28;20033;-87
2021/11/17 14:01:24;;;;;;;55.63;23.48;;;10.20;99.90;;;;;;5027987;28;20048;-87
2021/11/17 14:03:51;;;;;;;57.80;21.50;;;10.30;99.90;;;;;;5028408;28;20032;-87
2021/11/17 14:06:19;;;;;;;50.40;20.90;;;10.40;99.90;;;;;;5027901;28;20198;-87
2021/11/17 14:08:45;;;;;;;49.15;20.17;;;10.50;99.90;;;;;;5010603;28;20131;-87
2021/11/17 14:11:11;;;;;;;52.92;19.23;;;10.50;99.90;;;;;;5027780;28;20466;-87
2021/11/17 14:13:38;;;;;;;50.35;18.98;;;10.50;99.90;;;;;;5028287;28;20047;-87
2021/11/17 14:16:04;;;;;;;47.33;19.80;;;10.50;99.90;;;;;;5011572;28;20061;-88
2021/11/17 14:18:30;;;;;;;42.17;17.92;;;10.50;99.90;;;;;;5028939;28;20041;-87
2021/11/17 14:20:57;;;;;;;43.97;17.30;;;10.60;99.90;;;;;;5010650;28;20075;-91
2021/11/17 14:23:23;;;;;;;34.63;15.85;;;10.60;99.90;;;;;;5011428;28;20053;-89
2021/11/17 14:25:49;;;;;;;43.08;16.38;;;10.60;99.90;;;;;;5044046;28;20030;-89
2021/11/17 14:28:22;;;;;;;38.15;17.25;;;10.60;99.90;;;;;;5044202;28;20036;-89
2021/11/17 14:31:02;;;;;;;40.40;16.90;;;10.50;99.90;;;;;;5028907;28;20029;-90
2021/11/17 14:33:33;;;;;;;47.20;19.80;;;10.50;99.90;;;;;;5047432;28;20083;-91
2021/11/17 14:36:02;;;;;;;53.95;21.20;;;10.50;99.90;;;;;;5064108;28;20036;-90
2021/11/17 14:38:30;;;;;;;53.05;21.17;;;10.50;99.90;;;;;;5063917;28;20032;-88
2021/11/17 14:40:56;;;;;;;45.75;17.50;;;10.50;99.90;;;;;;5047360;28;20376;-90
2021/11/17 14:43:23;;;;;;;42.08;15.23;;;10.50;99.90;;;;;;5047572;28;20040;-89
2021/11/17 14:45:50;;;;;;;35.03;12.75;;;10.50;99.90;;;;;;5047084;28;20469;-90
2021/11/17 14:48:16;;;;;;;25.45;11.73;;;10.50;99.90;;;;;;5047154;28;20450;-88
2021/11/17 14:50:44;;;;;;;33.78;12.88;;;10.50;99.90;;;;;;5047172;28;20051;-87
2021/11/17 14:53:12;;;;;;;30.75;12.25;;;10.50;99.90;;;;;;5030937;28;20036;-89
2021/11/17 14:55:38;;;;;;;31.30;11.85;;;10.50;99.90;;;;;;5046953;28;20029;-87
2021/11/17 14:58:05;;;;;;;19.65;8.60;;;10.40;99.90;;;;;;5047006;28;20037;-89
2021/11/17 15:00:53;;;;;;;31.02;11.05;;;10.40;99.90;;;;;;5046804;28;20065;-88
2021/11/17 15:03:20;;;;;;;26.45;9.07;;;10.40;99.90;;;;;;5063270;28;20041;-90
2021/11/17 15:05:46;;;;;;;19.55;8.05;;;10.40;99.90;;;;;;5046829;28;20025;-87
2021/11/17 15:08:12;;;;;;;19.30;7.03;;;10.40;99.90;;;;;;5063600;28;20049;-89
2021/11/17 15:10:38;;;;;;;20.60;4.18;;;10.40;99.90;;;;;;5046988;28;20067;-87
2021/11/17 15:13:06;;;;;;;18.65;2.80;;;10.30;99.90;;;;;;5030800;28;20039;-86
2021/11/17 15:15:41;;;;;;;17.67;3.65;;;10.20;99.90;;;;;;5030277;28;20546;-89
2021/11/17 15:18:07;;;;;;;18.75;1.60;;;10.20;99.90;;;;;;5047308;28;20055;-89
2021/11/17 15:20:34;;;;;;;12.20;2.05;;;10.00;99.90;;;;;;5047845;28;20056;-90
2021/11/17 15:23:00;;;;;;;11.93;2.53;;;10.00;99.90;;;;;;5051006;28;20036;-88
2021/11/17 15:25:32;;;;;;;10.93;1.27;;;9.70;99.90;;;;;;5034139;28;20100;-90
2021/11/17 15:28:10;;;;;;;11.63;1.90;;;9.70;99.90;;;;;;5050805;28;20029;-87
2021/11/17 15:30:42;;;;;;;19.58;1.15;;;9.80;99.90;;;;;;5067267;28;20481;-90
2021/11/17 15:33:08;;;;;;;10.50;1.27;;;9.60;99.90;;;;;;5051084;28;20025;-88
2021/11/17 15:35:34;;;;;;;10.10;1.10;;;9.40;99.90;;;;;;5051267;28;20047;-87
2021/11/17 15:38:01;;;;;;;14.50;0.73;;;9.40;99.90;;;;;;5051171;28;20025;-89
2021/11/17 15:40:30;;;;;;;12.20;1.08;;;9.30;99.90;;;;;;5051128;28;20045;-88
2021/11/17 15:42:57;;;;;;;14.03;1.13;;;9.20;99.90;;;;;;5051338;28;20149;-88
2021/11/17 15:45:23;;;;;;;9.50;0.75;;;9.10;99.90;;;;;;5050990;28;20287;-89
2021/11/17 15:47:50;;;;;;;9.15;0.98;;;8.90;99.90;;;;;;5034440;28;20082;-87
2021/11/17 15:50:23;;;;;;;10.90;0.50;;;8.80;99.90;;;;;;5034249;28;20040;-89